createdAt,value
2018-07-02T00:00:31.114Z,1006.3
2018-07-02T00:01:32.733Z,1006.3
2018-07-02T00:02:34.344Z,1006.3
2018-07-02T00:03:35.961Z,1006.3
2018-07-02T00:04:37.574Z,1006.3
2018-07-02T00:05:39.194Z,1006.3
2018-07-02T00:06:40.806Z,1006.3
2018-07-02T00:07:42.419Z,1006.3
2018-07-02T00:08:44.028Z,1006.3
2018-07-02T00:09:45.640Z,1006.3
2018-07-02T00:10:47.255Z,1006.3
2018-07-02T00:11:48.865Z,1006.3
2018-07-02T00:12:50.480Z,1006.3
2018-07-02T00:13:52.098Z,1006.2
2018-07-02T00:14:53.710Z,1006.2
2018-07-02T00:15:55.327Z,1006.2
2018-07-02T00:16:56.939Z,1006.2
2018-07-02T00:17:58.551Z,1006.2
2018-07-02T00:19:00.170Z,1006.2
2018-07-02T00:20:01.785Z,1006.2
2018-07-02T00:21:03.405Z,1006.2
2018-07-02T00:22:05.017Z,1006.2
2018-07-02T00:23:07.435Z,1006.1
2018-07-02T00:24:09.044Z,1006.1
2018-07-02T00:25:10.678Z,1006.1
2018-07-02T00:26:12.273Z,1006.0
2018-07-02T00:27:13.889Z,1006.1
2018-07-02T00:28:15.507Z,1006.1
2018-07-02T00:29:17.117Z,1006.0
2018-07-02T00:30:18.736Z,1006.0
2018-07-02T00:31:20.346Z,1006.0
2018-07-02T00:32:21.967Z,1006.0
2018-07-02T00:33:23.575Z,1006.0
2018-07-02T00:34:25.187Z,1006.0
2018-07-02T00:35:26.805Z,1006.0
2018-07-02T00:36:28.413Z,1006.0
2018-07-02T00:37:30.031Z,1006.0
2018-07-02T00:38:31.646Z,1006.0
2018-07-02T00:39:33.260Z,1006.0
2018-07-02T00:40:34.874Z,1006.0
2018-07-02T00:41:36.487Z,1005.9
2018-07-02T00:42:38.143Z,1005.9
2018-07-02T00:43:39.717Z,1005.9
2018-07-02T00:44:41.330Z,1005.9
2018-07-02T00:45:42.943Z,1005.9
2018-07-02T00:46:44.563Z,1005.9
2018-07-02T00:47:46.173Z,1006.0
2018-07-02T00:48:47.788Z,1006.0
2018-07-02T00:49:49.402Z,1005.9
2018-07-02T00:50:51.022Z,1005.9
2018-07-02T00:51:52.629Z,1005.9
2018-07-02T00:52:54.242Z,1005.9
2018-07-02T00:53:55.864Z,1005.9
2018-07-02T00:54:57.478Z,1005.9
2018-07-02T00:55:59.095Z,1005.9
2018-07-02T00:57:00.705Z,1005.8
2018-07-02T00:58:02.315Z,1005.8
2018-07-02T00:59:03.929Z,1005.8
2018-07-02T01:00:05.542Z,1005.8
2018-07-02T01:01:07.152Z,1005.8
2018-07-02T01:02:08.770Z,1005.8
2018-07-02T01:03:10.388Z,1005.8
2018-07-02T01:04:11.999Z,1005.8
2018-07-02T01:05:13.621Z,1005.8
2018-07-02T01:06:15.226Z,1005.9
2018-07-02T01:07:16.840Z,1005.9
2018-07-02T01:08:18.455Z,1005.8
2018-07-02T01:09:20.064Z,1005.8
2018-07-02T01:10:21.683Z,1005.8
2018-07-02T01:11:23.299Z,1005.8
2018-07-02T01:12:24.915Z,1005.8
2018-07-02T01:13:26.525Z,1005.7
2018-07-02T01:14:28.139Z,1005.7
2018-07-02T01:15:29.757Z,1005.7
2018-07-02T01:16:31.368Z,1005.7
2018-07-02T01:17:32.981Z,1005.7
2018-07-02T01:18:34.598Z,1005.6
2018-07-02T01:19:36.208Z,1005.6
2018-07-02T01:20:37.822Z,1005.6
2018-07-02T01:21:39.439Z,1005.6
2018-07-02T01:22:41.050Z,1005.6
2018-07-02T01:23:42.672Z,1005.6
2018-07-02T01:24:44.283Z,1005.6
2018-07-02T01:25:45.902Z,1005.6
2018-07-02T01:26:47.513Z,1005.6
2018-07-02T01:27:49.123Z,1005.7
2018-07-02T01:28:50.739Z,1005.6
2018-07-02T01:29:52.348Z,1005.7
2018-07-02T01:30:53.974Z,1005.7
2018-07-02T01:31:55.584Z,1005.7
2018-07-02T01:32:57.200Z,1005.7
2018-07-02T01:33:58.816Z,1005.7
2018-07-02T01:35:00.425Z,1005.7
2018-07-02T01:36:02.036Z,1005.7
2018-07-02T01:37:03.653Z,1005.7
2018-07-02T01:38:05.265Z,1005.7
2018-07-02T01:39:06.883Z,1005.7
2018-07-02T01:40:08.501Z,1005.7
2018-07-02T01:41:10.109Z,1005.6
2018-07-02T01:42:11.725Z,1005.6
2018-07-02T01:43:13.341Z,1005.6
2018-07-02T01:44:14.956Z,1005.6
2018-07-02T01:45:16.567Z,1005.7
2018-07-02T01:46:18.181Z,1005.6
2018-07-02T01:47:19.797Z,1005.6
2018-07-02T01:48:21.407Z,1005.6
2018-07-02T01:49:23.018Z,1005.6
2018-07-02T01:50:24.636Z,1005.6
2018-07-02T01:51:26.248Z,1005.7
2018-07-02T01:52:27.867Z,1005.6
2018-07-02T01:53:29.476Z,1005.7
2018-07-02T01:54:31.089Z,1005.7
2018-07-02T01:55:32.707Z,1005.7
2018-07-02T01:56:34.314Z,1005.7
2018-07-02T01:57:35.931Z,1005.8
2018-07-02T01:58:37.542Z,1005.8
2018-07-02T01:59:39.160Z,1005.8
2018-07-02T02:00:40.777Z,1005.7
2018-07-02T02:01:42.394Z,1005.7
2018-07-02T02:02:44.002Z,1005.7
2018-07-02T02:03:45.614Z,1005.8
2018-07-02T02:04:47.229Z,1005.8
2018-07-02T02:05:48.840Z,1005.8
2018-07-02T02:06:50.458Z,1005.8
2018-07-02T02:07:52.068Z,1005.8
2018-07-02T02:08:53.685Z,1005.8
2018-07-02T02:09:55.294Z,1005.8
2018-07-02T02:10:56.904Z,1005.8
2018-07-02T02:11:58.521Z,1005.8
2018-07-02T02:13:00.130Z,1005.8
2018-07-02T02:14:01.749Z,1005.8
2018-07-02T02:15:03.358Z,1005.8
2018-07-02T02:16:04.979Z,1005.9
2018-07-02T02:17:06.590Z,1005.8
2018-07-02T02:18:08.208Z,1005.9
2018-07-02T02:19:09.816Z,1005.9
2018-07-02T02:20:11.427Z,1005.9
2018-07-02T02:21:13.046Z,1005.9
2018-07-02T02:22:14.657Z,1005.9
2018-07-02T02:23:16.276Z,1005.9
2018-07-02T02:24:17.884Z,1005.9
2018-07-02T02:25:19.503Z,1005.9
2018-07-02T02:26:21.112Z,1005.9
2018-07-02T02:27:22.725Z,1005.9
2018-07-02T02:28:24.341Z,1005.9
2018-07-02T02:29:25.955Z,1005.9
2018-07-02T02:30:27.571Z,1005.9
2018-07-02T02:31:29.185Z,1005.9
2018-07-02T02:32:30.795Z,1005.8
2018-07-02T02:33:32.406Z,1005.8
2018-07-02T02:34:34.025Z,1005.9
2018-07-02T02:35:35.633Z,1005.9
2018-07-02T02:36:37.255Z,1005.8
2018-07-02T02:37:38.867Z,1005.8
2018-07-02T02:38:40.477Z,1005.9
2018-07-02T02:39:42.086Z,1005.8
2018-07-02T02:40:43.702Z,1005.9
2018-07-02T02:41:45.312Z,1005.8
2018-07-02T02:42:46.930Z,1005.8
2018-07-02T02:43:48.551Z,1005.8
2018-07-02T02:44:50.161Z,1005.8
2018-07-02T02:45:51.778Z,1005.8
2018-07-02T02:46:53.386Z,1005.8
2018-07-02T02:47:54.999Z,1005.8
2018-07-02T02:48:56.611Z,1005.8
2018-07-02T02:49:58.228Z,1005.9
2018-07-02T02:50:59.842Z,1005.9
2018-07-02T02:52:01.454Z,1005.9
2018-07-02T02:53:03.072Z,1005.9
2018-07-02T02:54:04.682Z,1005.9
2018-07-02T02:55:06.300Z,1005.9
2018-07-02T02:56:07.909Z,1005.9
2018-07-02T02:57:09.527Z,1005.9
2018-07-02T02:58:11.140Z,1005.9
2018-07-02T02:59:12.761Z,1005.8
2018-07-02T03:00:14.383Z,1005.9
2018-07-02T03:01:15.982Z,1005.9
2018-07-02T03:02:18.180Z,1005.8
2018-07-02T03:03:19.796Z,1005.9
2018-07-02T03:04:21.412Z,1005.9
2018-07-02T03:05:23.587Z,1005.8
2018-07-02T03:06:25.822Z,1005.8
2018-07-02T03:07:28.010Z,1005.8
2018-07-02T03:08:29.623Z,1005.8
2018-07-02T03:09:31.236Z,1005.9
2018-07-02T03:10:32.856Z,1005.9
2018-07-02T03:11:34.466Z,1005.9
2018-07-02T03:12:36.096Z,1005.9
2018-07-02T03:13:37.704Z,1005.9
2018-07-02T03:14:39.318Z,1006.0
2018-07-02T03:15:40.936Z,1005.9
2018-07-02T03:16:42.551Z,1006.0
2018-07-02T03:17:44.170Z,1006.0
2018-07-02T03:18:45.788Z,1006.0
2018-07-02T03:19:47.400Z,1006.0
2018-07-02T03:20:49.015Z,1006.0
2018-07-02T03:21:50.633Z,1006.0
2018-07-02T03:22:52.252Z,1006.0
2018-07-02T03:23:53.861Z,1006.0
2018-07-02T03:24:55.478Z,1006.0
2018-07-02T03:25:57.091Z,1005.9
2018-07-02T03:26:58.709Z,1005.9
2018-07-02T03:28:00.332Z,1005.9
2018-07-02T03:29:01.946Z,1005.9
2018-07-02T03:30:03.562Z,1005.9
2018-07-02T03:31:05.179Z,1005.9
2018-07-02T03:32:06.794Z,1005.9
2018-07-02T03:33:08.411Z,1005.9
2018-07-02T03:34:10.025Z,1005.9
2018-07-02T03:35:11.646Z,1005.9
2018-07-02T03:36:13.262Z,1005.9
2018-07-02T03:37:14.882Z,1006.0
2018-07-02T03:38:16.494Z,1005.9
2018-07-02T03:39:18.112Z,1005.9
2018-07-02T03:40:19.730Z,1005.9
2018-07-02T03:41:21.342Z,1006.0
2018-07-02T03:42:22.963Z,1006.0
2018-07-02T03:43:24.578Z,1005.9
2018-07-02T03:44:26.191Z,1005.9
2018-07-02T03:45:27.810Z,1005.9
2018-07-02T03:46:29.424Z,1005.9
2018-07-02T03:47:31.040Z,1005.9
2018-07-02T03:48:32.664Z,1005.9
2018-07-02T03:49:34.283Z,1005.9
2018-07-02T03:50:35.893Z,1005.9
2018-07-02T03:51:37.511Z,1005.9
2018-07-02T03:52:39.123Z,1005.9
2018-07-02T03:53:40.741Z,1006.0
2018-07-02T03:54:42.373Z,1006.0
2018-07-02T03:55:43.994Z,1006.0
2018-07-02T03:56:45.609Z,1006.0
2018-07-02T03:57:47.224Z,1006.0
2018-07-02T03:58:48.842Z,1006.0
2018-07-02T03:59:50.456Z,1006.0
2018-07-02T04:00:52.075Z,1006.1
2018-07-02T04:01:53.696Z,1006.1
2018-07-02T04:02:55.313Z,1006.0
2018-07-02T04:03:56.933Z,1006.1
2018-07-02T04:04:58.546Z,1006.1
2018-07-02T04:06:00.168Z,1006.1
2018-07-02T04:07:01.786Z,1006.1
2018-07-02T04:08:03.398Z,1006.1
2018-07-02T04:09:05.025Z,1006.1
2018-07-02T04:10:06.640Z,1006.2
2018-07-02T04:11:08.263Z,1006.2
2018-07-02T04:12:09.936Z,1006.2
2018-07-02T04:13:11.499Z,1006.2
2018-07-02T04:14:13.111Z,1006.2
2018-07-02T04:15:14.732Z,1006.2
2018-07-02T04:16:16.352Z,1006.2
2018-07-02T04:17:17.967Z,1006.2
2018-07-02T04:18:19.592Z,1006.2
2018-07-02T04:19:21.206Z,1006.2
2018-07-02T04:20:22.822Z,1006.2
2018-07-02T04:21:24.446Z,1006.2
2018-07-02T04:22:26.066Z,1006.3
2018-07-02T04:23:27.678Z,1006.3
2018-07-02T04:24:29.296Z,1006.3
2018-07-02T04:25:30.920Z,1006.3
2018-07-02T04:26:32.532Z,1006.3
2018-07-02T04:27:34.155Z,1006.3
2018-07-02T04:28:35.768Z,1006.3
2018-07-02T04:29:37.386Z,1006.4
2018-07-02T04:30:39.005Z,1006.3
2018-07-02T04:31:40.622Z,1006.3
2018-07-02T04:32:42.281Z,1006.4
2018-07-02T04:33:43.858Z,1006.4
2018-07-02T04:34:45.477Z,1006.4
2018-07-02T04:35:47.095Z,1006.4
2018-07-02T04:36:48.720Z,1006.4
2018-07-02T04:37:50.333Z,1006.4
2018-07-02T04:38:51.953Z,1006.4
2018-07-02T04:39:53.569Z,1006.4
2018-07-02T04:40:55.188Z,1006.4
2018-07-02T04:41:56.808Z,1006.4
2018-07-02T04:42:58.424Z,1006.4
2018-07-02T04:44:00.044Z,1006.3
2018-07-02T04:45:01.664Z,1006.4
2018-07-02T04:46:03.280Z,1006.4
2018-07-02T04:47:04.902Z,1006.4
2018-07-02T04:48:06.520Z,1006.4
2018-07-02T04:49:08.134Z,1006.4
2018-07-02T04:50:09.751Z,1006.4
2018-07-02T04:51:11.426Z,1006.4
2018-07-02T04:52:12.990Z,1006.4
2018-07-02T04:53:14.618Z,1006.4
2018-07-02T04:54:16.192Z,1006.4
2018-07-02T04:55:17.800Z,1006.4
2018-07-02T04:56:19.423Z,1006.4
2018-07-02T04:57:21.038Z,1006.4
2018-07-02T04:58:22.662Z,1006.5
2018-07-02T04:59:24.285Z,1006.5
2018-07-02T05:00:25.906Z,1006.5
2018-07-02T05:01:27.528Z,1006.5
2018-07-02T05:02:29.139Z,1006.5
2018-07-02T05:03:30.754Z,1006.5
2018-07-02T05:04:32.378Z,1006.4
2018-07-02T05:05:34.087Z,1006.4
2018-07-02T05:06:35.612Z,1006.4
2018-07-02T05:07:37.244Z,1006.4
2018-07-02T05:08:38.854Z,1006.4
2018-07-02T05:09:40.472Z,1006.4
2018-07-02T05:10:42.088Z,1006.5
2018-07-02T05:11:43.725Z,1006.5
2018-07-02T05:12:45.348Z,1006.5
2018-07-02T05:13:46.963Z,1006.5
2018-07-02T05:14:48.586Z,1006.5
2018-07-02T05:15:50.202Z,1006.5
2018-07-02T05:16:51.826Z,1006.5
2018-07-02T05:17:53.437Z,1006.5
2018-07-02T05:18:55.054Z,1006.5
2018-07-02T05:19:56.679Z,1006.5
2018-07-02T05:20:58.292Z,1006.5
2018-07-02T05:21:59.913Z,1006.5
2018-07-02T05:23:01.573Z,1006.5
2018-07-02T05:24:03.243Z,1006.5
2018-07-02T05:25:05.152Z,1006.5
2018-07-02T05:26:06.743Z,1006.5
2018-07-02T05:27:08.388Z,1006.5
2018-07-02T05:28:10.001Z,1006.5
2018-07-02T05:29:11.632Z,1006.5
2018-07-02T05:30:14.514Z,1006.5
2018-07-02T05:31:16.103Z,1006.4
2018-07-02T05:32:17.721Z,1006.4
2018-07-02T05:33:19.341Z,1006.4
2018-07-02T05:34:20.964Z,1006.4
2018-07-02T05:35:22.589Z,1006.3
2018-07-02T05:36:24.980Z,1006.4
2018-07-02T05:37:26.601Z,1006.4
2018-07-02T05:38:28.220Z,1006.4
2018-07-02T05:39:29.834Z,1006.4
2018-07-02T05:40:31.458Z,1006.4
2018-07-02T05:41:33.074Z,1006.4
2018-07-02T05:42:34.695Z,1006.4
2018-07-02T05:43:36.318Z,1006.4
2018-07-02T05:44:38.078Z,1006.4
2018-07-02T05:45:39.552Z,1006.3
2018-07-02T05:46:41.169Z,1006.3
2018-07-02T05:47:42.790Z,1006.3
2018-07-02T05:48:44.405Z,1006.3
2018-07-02T05:49:46.032Z,1006.3
2018-07-02T05:50:47.650Z,1006.3
2018-07-02T05:51:49.266Z,1006.2
2018-07-02T05:52:50.887Z,1006.2
2018-07-02T05:53:53.482Z,1006.2
2018-07-02T05:54:55.103Z,1006.2
2018-07-02T05:55:56.718Z,1006.2
2018-07-02T05:56:58.337Z,1006.2
2018-07-02T05:57:59.961Z,1006.2
2018-07-02T05:59:01.583Z,1006.2
2018-07-02T06:00:03.235Z,1006.3
2018-07-02T06:01:04.821Z,1006.3
2018-07-02T06:02:06.435Z,1006.2
2018-07-02T06:03:08.053Z,1006.2
2018-07-02T06:04:09.679Z,1006.2
2018-07-02T06:05:11.302Z,1006.2
2018-07-02T06:06:12.923Z,1006.2
2018-07-02T06:07:14.541Z,1006.2
2018-07-02T06:08:16.161Z,1006.2
2018-07-02T06:09:17.773Z,1006.2
2018-07-02T06:10:19.394Z,1006.2
2018-07-02T06:11:21.019Z,1006.2
2018-07-02T06:12:22.634Z,1006.2
2018-07-02T06:13:24.256Z,1006.2
2018-07-02T06:14:25.884Z,1006.2
2018-07-02T06:15:27.515Z,1006.2
2018-07-02T06:16:29.154Z,1006.3
2018-07-02T06:17:30.766Z,1006.3
2018-07-02T06:18:32.393Z,1006.3
2018-07-02T06:19:34.018Z,1006.4
2018-07-02T06:20:35.638Z,1006.5
2018-07-02T06:21:37.256Z,1006.5
2018-07-02T06:22:38.880Z,1006.5
2018-07-02T06:23:40.501Z,1006.7
2018-07-02T06:24:42.154Z,1006.6
2018-07-02T06:25:43.744Z,1006.7
2018-07-02T06:26:45.364Z,1006.7
2018-07-02T06:27:46.988Z,1006.7
2018-07-02T06:28:48.612Z,1006.7
2018-07-02T06:29:50.234Z,1006.6
2018-07-02T06:30:51.856Z,1006.7
2018-07-02T06:31:53.484Z,1006.7
2018-07-02T06:32:55.104Z,1006.7
2018-07-02T06:33:56.727Z,1006.8
2018-07-02T06:34:58.358Z,1006.7
2018-07-02T06:35:59.977Z,1006.8
2018-07-02T06:37:01.608Z,1006.8
2018-07-02T06:38:03.231Z,1006.8
2018-07-02T06:39:04.860Z,1006.8
2018-07-02T06:40:06.490Z,1006.8
2018-07-02T06:41:08.118Z,1006.8
2018-07-02T06:42:09.747Z,1006.9
2018-07-02T06:43:11.365Z,1006.8
2018-07-02T06:44:12.996Z,1006.9
2018-07-02T06:45:14.618Z,1006.9
2018-07-02T06:46:16.244Z,1006.9
2018-07-02T06:47:17.878Z,1006.9
2018-07-02T06:48:19.499Z,1006.9
2018-07-02T06:49:21.135Z,1006.9
2018-07-02T06:50:22.768Z,1006.9
2018-07-02T06:51:24.396Z,1006.9
2018-07-02T06:52:26.030Z,1006.9
2018-07-02T06:53:27.650Z,1007.0
2018-07-02T06:54:29.285Z,1006.9
2018-07-02T06:55:30.913Z,1006.9
2018-07-02T06:56:32.547Z,1007.0
2018-07-02T06:57:34.176Z,1006.9
2018-07-02T06:58:35.850Z,1006.9
2018-07-02T06:59:37.446Z,1006.9
2018-07-02T07:00:39.075Z,1006.9
2018-07-02T07:01:40.703Z,1006.9
2018-07-02T07:02:42.340Z,1006.9
2018-07-02T07:03:43.967Z,1006.9
2018-07-02T07:04:45.597Z,1006.9
2018-07-02T07:05:47.233Z,1006.9
2018-07-02T07:06:48.864Z,1006.9
2018-07-02T07:07:50.493Z,1006.9
2018-07-02T07:08:52.127Z,1006.9
2018-07-02T07:09:53.762Z,1006.9
2018-07-02T07:10:55.400Z,1006.9
2018-07-02T07:11:57.032Z,1006.9
2018-07-02T07:12:58.663Z,1006.9
2018-07-02T07:14:00.302Z,1006.9
2018-07-02T07:15:01.935Z,1006.9
2018-07-02T07:16:03.569Z,1006.9
2018-07-02T07:17:05.204Z,1006.9
2018-07-02T07:18:06.844Z,1006.9
2018-07-02T07:19:08.476Z,1006.9
2018-07-02T07:20:10.105Z,1007.0
2018-07-02T07:21:11.741Z,1007.0
2018-07-02T07:22:13.375Z,1007.0
2018-07-02T07:23:15.016Z,1007.0
2018-07-02T07:24:16.647Z,1007.0
2018-07-02T07:25:18.298Z,1007.0
2018-07-02T07:26:19.929Z,1007.0
2018-07-02T07:27:21.560Z,1007.0
2018-07-02T07:28:23.191Z,1007.1
2018-07-02T07:29:24.825Z,1007.0
2018-07-02T07:30:26.463Z,1007.1
2018-07-02T07:31:28.098Z,1007.1
2018-07-02T07:32:29.738Z,1007.0
2018-07-02T07:33:31.376Z,1007.1
2018-07-02T07:34:33.007Z,1007.0
2018-07-02T07:35:34.644Z,1007.1
2018-07-02T07:36:36.277Z,1007.1
2018-07-02T07:37:37.920Z,1007.0
2018-07-02T07:38:40.458Z,1007.0
2018-07-02T07:39:42.096Z,1007.1
2018-07-02T07:40:43.724Z,1007.1
2018-07-02T07:41:45.362Z,1007.1
2018-07-02T07:42:46.996Z,1007.0
2018-07-02T07:43:48.640Z,1007.1
2018-07-02T07:44:50.295Z,1007.0
2018-07-02T07:45:51.914Z,1007.0
2018-07-02T07:46:53.546Z,1007.1
2018-07-02T07:47:55.175Z,1007.1
2018-07-02T07:48:56.813Z,1007.1
2018-07-02T07:49:58.446Z,1007.1
2018-07-02T07:51:00.087Z,1007.1
2018-07-02T07:52:01.725Z,1007.1
2018-07-02T07:53:03.358Z,1007.1
2018-07-02T07:54:05.001Z,1007.1
2018-07-02T07:55:06.634Z,1007.1
2018-07-02T07:56:08.275Z,1007.0
2018-07-02T07:57:09.903Z,1007.0
2018-07-02T07:58:11.542Z,1007.0
2018-07-02T07:59:13.182Z,1007.0
2018-07-02T08:00:14.815Z,1007.0
2018-07-02T08:01:16.458Z,1007.0
2018-07-02T08:02:18.095Z,1007.0
2018-07-02T08:03:19.728Z,1007.0
2018-07-02T08:04:21.361Z,1007.0
2018-07-02T08:05:22.999Z,1007.0
2018-07-02T08:06:24.634Z,1007.0
2018-07-02T08:07:26.272Z,1007.0
2018-07-02T08:08:27.911Z,1007.0
2018-07-02T08:09:29.539Z,1007.0
2018-07-02T08:10:31.235Z,1007.0
2018-07-02T08:11:32.816Z,1007.0
2018-07-02T08:12:34.450Z,1007.0
2018-07-02T08:13:36.091Z,1007.0
2018-07-02T08:14:37.733Z,1007.0
2018-07-02T08:15:39.369Z,1007.0
2018-07-02T08:16:41.007Z,1007.0
2018-07-02T08:17:42.643Z,1007.0
2018-07-02T08:18:44.279Z,1007.0
2018-07-02T08:19:45.916Z,1007.0
2018-07-02T08:20:47.554Z,1007.0
2018-07-02T08:21:49.190Z,1007.0
2018-07-02T08:22:50.828Z,1007.0
2018-07-02T08:23:52.469Z,1007.0
2018-07-02T08:24:54.103Z,1007.0
2018-07-02T08:25:55.748Z,1006.9
2018-07-02T08:26:57.389Z,1007.0
2018-07-02T08:27:59.021Z,1007.0
2018-07-02T08:29:00.666Z,1006.9
2018-07-02T08:30:02.303Z,1007.0
2018-07-02T08:31:03.942Z,1007.0
2018-07-02T08:32:05.583Z,1007.0
2018-07-02T08:33:07.249Z,1007.0
2018-07-02T08:34:08.855Z,1007.0
2018-07-02T08:35:10.495Z,1007.1
2018-07-02T08:36:12.139Z,1007.0
2018-07-02T08:37:13.780Z,1006.9
2018-07-02T08:38:15.418Z,1007.0
2018-07-02T08:39:17.059Z,1007.0
2018-07-02T08:40:18.695Z,1006.9
2018-07-02T08:41:20.356Z,1007.0
2018-07-02T08:42:21.978Z,1006.9
2018-07-02T08:43:23.618Z,1006.9
2018-07-02T08:44:25.263Z,1006.9
2018-07-02T08:45:26.903Z,1006.9
2018-07-02T08:46:28.537Z,1006.9
2018-07-02T08:47:30.179Z,1006.8
2018-07-02T08:48:31.831Z,1006.8
2018-07-02T08:49:33.472Z,1006.8
2018-07-02T08:50:35.109Z,1006.8
2018-07-02T08:51:36.756Z,1006.8
2018-07-02T08:52:38.424Z,1006.8
2018-07-02T08:53:40.032Z,1006.8
2018-07-02T08:54:41.674Z,1006.8
2018-07-02T08:55:43.310Z,1006.8
2018-07-02T08:56:44.957Z,1006.9
2018-07-02T08:57:46.594Z,1006.8
2018-07-02T08:58:48.241Z,1006.9
2018-07-02T08:59:49.875Z,1006.8
2018-07-02T09:00:51.521Z,1006.9
2018-07-02T09:01:53.166Z,1006.9
2018-07-02T09:02:54.807Z,1006.9
2018-07-02T09:03:56.451Z,1006.9
2018-07-02T09:04:58.090Z,1006.9
2018-07-02T09:05:59.738Z,1006.8
2018-07-02T09:07:01.377Z,1006.9
2018-07-02T09:08:03.021Z,1006.8
2018-07-02T09:09:04.654Z,1006.8
2018-07-02T09:10:06.295Z,1006.8
2018-07-02T09:11:07.942Z,1006.9
2018-07-02T09:12:09.583Z,1006.8
2018-07-02T09:13:11.238Z,1006.8
2018-07-02T09:14:12.881Z,1006.8
2018-07-02T09:15:14.527Z,1006.8
2018-07-02T09:16:16.390Z,1006.8
2018-07-02T09:17:17.814Z,1006.9
2018-07-02T09:18:19.453Z,1006.8
2018-07-02T09:19:21.103Z,1006.8
2018-07-02T09:20:22.750Z,1006.8
2018-07-02T09:21:24.391Z,1006.8
2018-07-02T09:22:26.031Z,1006.9
2018-07-02T09:23:27.678Z,1006.9
2018-07-02T09:24:29.319Z,1006.9
2018-07-02T09:25:30.967Z,1006.8
2018-07-02T09:26:32.617Z,1006.8
2018-07-02T09:27:34.256Z,1006.8
2018-07-02T09:28:35.904Z,1006.8
2018-07-02T09:29:37.546Z,1006.8
2018-07-02T09:30:39.191Z,1006.8
2018-07-02T09:31:40.835Z,1006.8
2018-07-02T09:32:42.483Z,1006.9
2018-07-02T09:33:44.123Z,1006.8
2018-07-02T09:34:45.763Z,1006.8
2018-07-02T09:35:47.414Z,1006.8
2018-07-02T09:36:49.053Z,1006.7
2018-07-02T09:37:50.696Z,1006.8
2018-07-02T09:38:52.336Z,1006.8
2018-07-02T09:39:53.983Z,1006.8
2018-07-02T09:40:55.630Z,1006.7
2018-07-02T09:41:57.269Z,1006.7
2018-07-02T09:42:58.910Z,1006.8
2018-07-02T09:44:00.549Z,1006.8
2018-07-02T09:45:02.190Z,1006.8
2018-07-02T09:46:03.839Z,1006.8
2018-07-02T09:47:05.481Z,1006.8
2018-07-02T09:48:07.129Z,1006.7
2018-07-02T09:49:08.771Z,1006.8
2018-07-02T09:50:10.416Z,1006.8
2018-07-02T09:51:12.057Z,1006.8
2018-07-02T09:52:13.708Z,1006.8
2018-07-02T09:53:15.350Z,1006.7
2018-07-02T09:54:16.988Z,1006.8
2018-07-02T09:55:18.631Z,1006.8
2018-07-02T09:56:20.278Z,1006.8
2018-07-02T09:57:21.916Z,1006.8
2018-07-02T09:58:23.564Z,1006.9
2018-07-02T09:59:25.210Z,1006.8
2018-07-02T10:00:26.850Z,1006.8
2018-07-02T10:01:28.498Z,1006.8
2018-07-02T10:02:30.134Z,1006.8
2018-07-02T10:03:31.785Z,1006.7
2018-07-02T10:04:33.420Z,1006.7
2018-07-02T10:05:35.065Z,1006.7
2018-07-02T10:06:36.718Z,1006.7
2018-07-02T10:07:38.347Z,1006.7
2018-07-02T10:08:39.992Z,1006.7
2018-07-02T10:09:41.636Z,1006.7
2018-07-02T10:10:43.278Z,1006.8
2018-07-02T10:11:44.924Z,1006.7
2018-07-02T10:12:46.562Z,1006.7
2018-07-02T10:13:48.202Z,1006.8
2018-07-02T10:14:49.845Z,1006.8
2018-07-02T10:15:51.484Z,1006.8
2018-07-02T10:16:53.131Z,1006.8
2018-07-02T10:17:54.779Z,1006.8
2018-07-02T10:18:56.416Z,1006.8
2018-07-02T10:19:58.061Z,1006.8
2018-07-02T10:20:59.705Z,1006.7
2018-07-02T10:22:01.343Z,1006.8
2018-07-02T10:23:02.994Z,1006.7
2018-07-02T10:24:04.637Z,1006.7
2018-07-02T10:25:06.284Z,1006.7
2018-07-02T10:26:07.927Z,1006.7
2018-07-02T10:27:09.569Z,1006.7
2018-07-02T10:28:11.213Z,1006.7
2018-07-02T10:29:12.873Z,1006.7
2018-07-02T10:30:14.500Z,1006.7
2018-07-02T10:31:16.183Z,1006.7
2018-07-02T10:32:17.787Z,1006.7
2018-07-02T10:33:19.430Z,1006.7
2018-07-02T10:34:21.075Z,1006.6
2018-07-02T10:35:22.722Z,1006.6
2018-07-02T10:36:24.370Z,1006.6
2018-07-02T10:37:26.005Z,1006.6
2018-07-02T10:38:27.653Z,1006.7
2018-07-02T10:39:29.295Z,1006.7
2018-07-02T10:40:30.932Z,1006.7
2018-07-02T10:41:32.582Z,1006.7
2018-07-02T10:42:34.219Z,1006.6
2018-07-02T10:43:35.860Z,1006.6
2018-07-02T10:44:37.510Z,1006.6
2018-07-02T10:45:39.153Z,1006.7
2018-07-02T10:46:40.808Z,1006.7
2018-07-02T10:47:42.449Z,1006.7
2018-07-02T10:48:44.092Z,1006.6
2018-07-02T10:49:45.736Z,1006.6
2018-07-02T10:50:47.375Z,1006.6
2018-07-02T10:51:49.024Z,1006.6
2018-07-02T10:52:50.670Z,1006.6
2018-07-02T10:53:52.317Z,1006.5
2018-07-02T10:54:53.964Z,1006.6
2018-07-02T10:55:55.600Z,1006.6
2018-07-02T10:56:57.242Z,1006.5
2018-07-02T10:57:58.887Z,1006.5
2018-07-02T10:59:00.526Z,1006.5
2018-07-02T11:00:02.169Z,1006.6
2018-07-02T11:01:03.819Z,1006.5
2018-07-02T11:02:05.459Z,1006.5
2018-07-02T11:03:07.102Z,1006.6
2018-07-02T11:04:09.510Z,1006.5
2018-07-02T11:05:11.151Z,1006.5
2018-07-02T11:06:12.800Z,1006.5
2018-07-02T11:07:14.439Z,1006.5
2018-07-02T11:08:16.090Z,1006.5
2018-07-02T11:09:17.732Z,1006.5
2018-07-02T11:10:19.377Z,1006.5
2018-07-02T11:11:21.056Z,1006.5
2018-07-02T11:12:22.668Z,1006.5
2018-07-02T11:13:24.303Z,1006.5
2018-07-02T11:14:25.953Z,1006.5
2018-07-02T11:15:27.596Z,1006.4
2018-07-02T11:16:29.238Z,1006.5
2018-07-02T11:17:30.883Z,1006.5
2018-07-02T11:18:32.529Z,1006.5
2018-07-02T11:19:34.171Z,1006.5
2018-07-02T11:20:35.817Z,1006.5
2018-07-02T11:21:37.465Z,1006.5
2018-07-02T11:22:39.103Z,1006.4
2018-07-02T11:23:40.786Z,1006.5
2018-07-02T11:24:42.390Z,1006.4
2018-07-02T11:25:44.035Z,1006.5
2018-07-02T11:26:45.677Z,1006.4
2018-07-02T11:27:47.320Z,1006.5
2018-07-02T11:28:48.970Z,1006.5
2018-07-02T11:29:50.629Z,1006.4
2018-07-02T11:30:52.263Z,1006.4
2018-07-02T11:31:53.914Z,1006.5
2018-07-02T11:32:55.548Z,1006.3
2018-07-02T11:33:57.189Z,1006.5
2018-07-02T11:34:58.840Z,1006.4
2018-07-02T11:36:00.482Z,1006.4
2018-07-02T11:37:02.131Z,1006.4
2018-07-02T11:38:03.774Z,1006.4
2018-07-02T11:39:05.415Z,1006.4
2018-07-02T11:40:07.067Z,1006.5
2018-07-02T11:41:08.701Z,1006.4
2018-07-02T11:42:10.348Z,1006.4
2018-07-02T11:43:11.989Z,1006.4
2018-07-02T11:44:13.651Z,1006.5
2018-07-02T11:45:15.274Z,1006.4
2018-07-02T11:46:16.915Z,1006.3
2018-07-02T11:47:18.563Z,1006.3
2018-07-02T11:48:20.204Z,1006.3
2018-07-02T11:49:21.851Z,1006.4
2018-07-02T11:50:23.503Z,1006.4
2018-07-02T11:51:25.140Z,1006.3
2018-07-02T11:52:26.779Z,1006.3
2018-07-02T11:53:28.425Z,1006.4
2018-07-02T11:54:30.064Z,1006.4
2018-07-02T11:55:31.711Z,1006.4
2018-07-02T11:56:33.355Z,1006.3
2018-07-02T11:57:35.000Z,1006.3
2018-07-02T11:58:36.647Z,1006.3
2018-07-02T11:59:38.292Z,1006.3
2018-07-02T12:00:39.935Z,1006.4
2018-07-02T12:01:41.578Z,1006.4
2018-07-02T12:02:43.218Z,1006.4
2018-07-02T12:03:44.864Z,1006.4
2018-07-02T12:04:46.514Z,1006.4
2018-07-02T12:05:48.152Z,1006.5
2018-07-02T12:06:49.793Z,1006.4
2018-07-02T12:07:51.448Z,1006.4
2018-07-02T12:08:53.086Z,1006.4
2018-07-02T12:09:54.791Z,1006.5
2018-07-02T12:10:56.376Z,1006.5
2018-07-02T12:11:58.016Z,1006.5
2018-07-02T12:12:59.660Z,1006.5
2018-07-02T12:14:01.305Z,1006.4
2018-07-02T12:15:02.951Z,1006.4
2018-07-02T12:16:04.593Z,1006.6
2018-07-02T12:17:06.233Z,1006.6
2018-07-02T12:18:07.874Z,1006.6
2018-07-02T12:19:09.515Z,1006.6
2018-07-02T12:20:11.164Z,1006.7
2018-07-02T12:21:12.798Z,1006.6
2018-07-02T12:22:14.447Z,1006.6
2018-07-02T12:23:16.091Z,1006.6
2018-07-02T12:24:17.733Z,1006.6
2018-07-02T12:25:19.371Z,1006.6
2018-07-02T12:26:21.028Z,1006.7
2018-07-02T12:27:22.657Z,1006.7
2018-07-02T12:28:24.301Z,1006.7
2018-07-02T12:29:25.945Z,1006.7
2018-07-02T12:30:27.587Z,1006.6
2018-07-02T12:31:29.230Z,1006.6
2018-07-02T12:32:30.870Z,1006.6
2018-07-02T12:33:32.575Z,1006.6
2018-07-02T12:34:34.160Z,1006.6
2018-07-02T12:35:35.803Z,1006.6
2018-07-02T12:36:37.442Z,1006.6
2018-07-02T12:37:39.089Z,1006.6
2018-07-02T12:38:40.728Z,1006.6
2018-07-02T12:39:42.371Z,1006.6
2018-07-02T12:40:44.011Z,1006.6
2018-07-02T12:41:45.658Z,1006.6
2018-07-02T12:42:47.297Z,1006.6
2018-07-02T12:43:48.940Z,1006.5
2018-07-02T12:44:50.580Z,1006.5
2018-07-02T12:45:52.220Z,1006.5
2018-07-02T12:46:53.867Z,1006.5
2018-07-02T12:47:55.515Z,1006.5
2018-07-02T12:48:57.147Z,1006.5